Augusta Regional At Bush Field
KAGS : now visible

Airfield :











YOU CAN JOIN US ON...

 
LOGIN :

Register | Disclaimer

   EN    FR    IT 

 









Legend :    VFR   Marginal VFR   IFR   Intensive IFR   Very Intensive IFR
Visi :
Ceiling :
>= 8 km
>= 3000ft
5 to 8 km
1000 to 3000 ft
1500m to 5 km
500 to 1000 ft
800 to 1500m
200 to 500 ft
< 800m
< 200 ft
Symbols :   Thunderstorms  Fog  Heavy snow  Heavy precipitations  Wind > 20 kt






- Airport Elevation : 144 ft
- IATA code : AGS


KAGS - Augusta Regional At Bush Field

CURRENT METAR :
  • 082153Z 34008KT 10SM OVC012 11/09 A2999 RMK AO2 SLP154 T01110089

EXPIRED METARs :
  • 082053Z 32007KT 10SM OVC011 12/09 A2996 RMK AO2 SLP145 T01170089 53004
  • 081953Z 34005KT 10SM OVC010 12/09 A2995 RMK AO2 SLP140 T01170094

TAF KAGS
Valid from the 08 at 21:00 until the 09 at 18:00 UTC


082109Z 0821/0918 32006KT P6SM OVC012
TEMPO 0821/0823 BKN008
FM090000 28003KT P6SM SCT015
FM090300 VRB03KT P6SM FEW025 SCT250
FM090700 00000KT 2SM BR SCT250
TEMPO 0910/0913 3/4SM BR FEW001
FM091400 10004KT 6SM BR SKC
KZTL FIR / North America



MET'MAP, your aeronautical weather chart ! - Copyright ORBIFLY December 2007 - Disclaimer

ORBIFLY MET'MAP TEAM :

Programming & Development : Alexandra Zaïnal
Concept & original design : Baudouin d'Aumeries
Assistance for programming : Marc-Olivier Méhu
Technical & hardware support : Manuel Goepfert

Contact : metmap@orbifly.com




SOURCES & CREDITS :

   NOAA       Earth
Advisory